sensor_id;sensor_type;location;lat;lon;timestamp;noise_LAeq;noise_LA_min;noise_LA_max;noise_LA01;noise_LA95
67320;Laerm;57665;51.436;5.978;2024-02-21T00:00:03;67.43;39.25;74.92;;
67320;Laerm;57665;51.436;5.978;2024-02-21T00:00:15;71.61;65.96;77.05;;
67320;Laerm;57665;51.436;5.978;2024-02-21T00:00:25;67.86;52.28;74.60;;
67320;Laerm;57665;51.436;5.978;2024-02-21T00:00:35;48.84;40.57;56.59;;
67320;Laerm;57665;51.436;5.978;2024-02-21T00:00:48;40.59;39.26;42.40;;
67320;Laerm;57665;51.436;5.978;2024-02-21T00:00:58;40.01;38.71;41.46;;
67320;Laerm;57665;51.436;5.978;2024-02-21T00:01:08;39.69;38.25;40.83;;
67320;Laerm;57665;51.436;5.978;2024-02-21T00:01:24;40.04;38.49;43.37;;
67320;Laerm;57665;51.436;5.978;2024-02-21T00:01:34;40.09;38.85;41.05;;
67320;Laerm;57665;51.436;5.978;2024-02-21T00:01:44;40.21;38.77;41.88;;
67320;Laerm;57665;51.436;5.978;2024-02-21T00:01:54;39.98;38.74;42.26;;
67320;Laerm;57665;51.436;5.978;2024-02-21T00:02:04;39.86;38.51;41.04;;
67320;Laerm;57665;51.436;5.978;2024-02-21T00:02:15;40.20;38.39;41.62;;
67320;Laerm;57665;51.436;5.978;2024-02-21T00:02:25;39.92;38.63;41.26;;
67320;Laerm;57665;51.436;5.978;2024-02-21T00:02:35;39.96;38.86;41.35;;
67320;Laerm;57665;51.436;5.978;2024-02-21T00:02:48;40.05;38.91;41.18;;
67320;Laerm;57665;51.436;5.978;2024-02-21T00:02:58;40.07;38.56;41.26;;
67320;Laerm;57665;51.436;5.978;2024-02-21T00:03:12;40.03;38.82;41.55;;
67320;Laerm;57665;51.436;5.978;2024-02-21T00:03:22;39.68;38.74;40.52;;
67320;Laerm;57665;51.436;5.978;2024-02-21T00:03:32;39.95;38.39;41.26;;
67320;Laerm;57665;51.436;5.978;2024-02-21T00:03:42;39.61;38.52;40.68;;
67320;Laerm;57665;51.436;5.978;2024-02-21T00:03:53;39.76;38.57;41.20;;
67320;Laerm;57665;51.436;5.978;2024-02-21T00:04:03;39.66;38.65;40.77;;
67320;Laerm;57665;51.436;5.978;2024-02-21T00:04:13;39.95;38.55;41.03;;
67320;Laerm;57665;51.436;5.978;2024-02-21T00:04:23;39.50;38.41;40.45;;
67320;Laerm;57665;51.436;5.978;2024-02-21T00:04:36;39.45;38.22;40.44;;
67320;Laerm;57665;51.436;5.978;2024-02-21T00:04:48;39.60;38.53;40.54;;
67320;Laerm;57665;51.436;5.978;2024-02-21T00:04:58;39.68;38.77;41.10;;
67320;Laerm;57665;51.436;5.978;2024-02-21T00:05:08;40.21;38.71;43.74;;
67320;Laerm;57665;51.436;5.978;2024-02-21T00:05:19;39.78;38.65;40.88;;
67320;Laerm;57665;51.436;5.978;2024-02-21T00:05:29;39.70;38.49;40.86;;
67320;Laerm;57665;51.436;5.978;2024-02-21T00:05:39;40.13;38.59;43.65;;
67320;Laerm;57665;51.436;5.978;2024-02-21T00:05:49;39.67;38.52;40.92;;
67320;Laerm;57665;51.436;5.978;2024-02-21T00:06:00;39.81;38.87;40.93;;
67320;Laerm;57665;51.436;5.978;2024-02-21T00:06:10;40.10;38.67;41.69;;
67320;Laerm;57665;51.436;5.978;2024-02-21T00:06:20;39.70;38.44;40.67;;
67320;Laerm;57665;51.436;5.978;2024-02-21T00:06:30;40.08;38.80;41.43;;
67320;Laerm;57665;51.436;5.978;2024-02-21T00:06:40;39.89;38.89;41.13;;
67320;Laerm;57665;51.436;5.978;2024-02-21T00:06:51;39.87;38.55;41.23;;
67320;Laerm;57665;51.436;5.978;2024-02-21T00:07:01;39.70;38.46;41.96;;
67320;Laerm;57665;51.436;5.978;2024-02-21T00:07:11;39.49;38.41;40.67;;
67320;Laerm;57665;51.436;5.978;2024-02-21T00:07:21;39.30;38.28;40.08;;
67320;Laerm;57665;51.436;5.978;2024-02-21T00:07:32;39.36;38.00;40.46;;
67320;Laerm;57665;51.436;5.978;2024-02-21T00:07:42;39.40;38.35;41.30;;
67320;Laerm;57665;51.436;5.978;2024-02-21T00:07:53;39.91;38.87;41.33;;
67320;Laerm;57665;51.436;5.978;2024-02-21T00:08:03;39.75;38.42;41.66;;
67320;Laerm;57665;51.436;5.978;2024-02-21T00:08:13;40.10;38.49;45.31;;
67320;Laerm;57665;51.436;5.978;2024-02-21T00:08:24;40.16;38.48;49.64;;
67320;Laerm;57665;51.436;5.978;2024-02-21T00:08:34;40.13;38.24;43.98;;
67320;Laerm;57665;51.436;5.978;2024-02-21T00:08:44;40.83;38.87;44.42;;
67320;Laerm;57665;51.436;5.978;2024-02-21T00:08:54;39.80;38.38;41.26;;
67320;Laerm;57665;51.436;5.978;2024-02-21T00:09:05;39.53;38.44;41.53;;
67320;Laerm;57665;51.436;5.978;2024-02-21T00:09:15;40.12;38.89;42.02;;
67320;Laerm;57665;51.436;5.978;2024-02-21T00:09:25;40.24;38.74;45.33;;
67320;Laerm;57665;51.436;5.978;2024-02-21T00:09:35;39.78;38.68;40.61;;
67320;Laerm;57665;51.436;5.978;2024-02-21T00:09:45;39.84;38.57;41.15;;
67320;Laerm;57665;51.436;5.978;2024-02-21T00:09:56;40.52;39.21;41.86;;
67320;Laerm;57665;51.436;5.978;2024-02-21T00:10:07;39.95;38.49;41.12;;
67320;Laerm;57665;51.436;5.978;2024-02-21T00:10:17;40.28;39.14;42.00;;
67320;Laerm;57665;51.436;5.978;2024-02-21T00:10:28;39.98;38.77;41.11;;
67320;Laerm;57665;51.436;5.978;2024-02-21T00:10:38;39.62;38.62;40.60;;
67320;Laerm;57665;51.436;5.978;2024-02-21T00:10:49;39.87;38.97;40.84;;
67320;Laerm;57665;51.436;5.978;2024-02-21T00:10:59;39.75;38.67;41.10;;
67320;Laerm;57665;51.436;5.978;2024-02-21T00:11:09;39.65;38.71;40.54;;
67320;Laerm;57665;51.436;5.978;2024-02-21T00:11:19;39.92;38.52;43.65;;
67320;Laerm;57665;51.436;5.978;2024-02-21T00:11:32;39.77;38.64;42.64;;
67320;Laerm;57665;51.436;5.978;2024-02-21T00:11:42;39.43;38.38;40.42;;
67320;Laerm;57665;51.436;5.978;2024-02-21T00:11:53;39.69;38.48;42.28;;
67320;Laerm;57665;51.436;5.978;2024-02-21T00:12:03;39.40;38.23;40.56;;
67320;Laerm;57665;51.436;5.978;2024-02-21T00:12:15;39.72;38.65;40.61;;
67320;Laerm;57665;51.436;5.978;2024-02-21T00:12:25;39.92;38.81;41.10;;
67320;Laerm;57665;51.436;5.978;2024-02-21T00:12:35;39.75;38.61;41.04;;
67320;Laerm;57665;51.436;5.978;2024-02-21T00:12:46;39.92;38.77;41.00;;
67320;Laerm;57665;51.436;5.978;2024-02-21T00:12:56;39.93;38.80;41.37;;
67320;Laerm;57665;51.436;5.978;2024-02-21T00:13:06;39.71;38.32;40.79;;
67320;Laerm;57665;51.436;5.978;2024-02-21T00:13:17;39.92;38.62;41.12;;
67320;Laerm;57665;51.436;5.978;2024-02-21T00:13:30;39.61;38.42;40.80;;
67320;Laerm;57665;51.436;5.978;2024-02-21T00:13:40;39.88;38.75;40.97;;
67320;Laerm;57665;51.436;5.978;2024-02-21T00:13:50;39.78;38.58;40.99;;
67320;Laerm;57665;51.436;5.978;2024-02-21T00:14:01;39.97;39.00;41.17;;
67320;Laerm;57665;51.436;5.978;2024-02-21T00:14:11;39.94;38.67;41.20;;
67320;Laerm;57665;51.436;5.978;2024-02-21T00:14:21;39.66;38.72;40.50;;
67320;Laerm;57665;51.436;5.978;2024-02-21T00:14:31;39.61;38.69;40.67;;
67320;Laerm;57665;51.436;5.978;2024-02-21T00:14:42;39.75;38.63;41.48;;
67320;Laerm;57665;51.436;5.978;2024-02-21T00:14:52;39.79;38.52;41.89;;
67320;Laerm;57665;51.436;5.978;2024-02-21T00:15:02;40.06;38.85;41.91;;
67320;Laerm;57665;51.436;5.978;2024-02-21T00:15:16;40.15;38.77;41.69;;
67320;Laerm;57665;51.436;5.978;2024-02-21T00:15:26;40.41;39.08;41.76;;
67320;Laerm;57665;51.436;5.978;2024-02-21T00:15:37;39.84;38.85;41.18;;
67320;Laerm;57665;51.436;5.978;2024-02-21T00:15:47;39.61;38.50;40.68;;
67320;Laerm;57665;51.436;5.978;2024-02-21T00:15:57;39.88;38.70;41.81;;
67320;Laerm;57665;51.436;5.978;2024-02-21T00:16:07;40.17;38.81;41.35;;
67320;Laerm;57665;51.436;5.978;2024-02-21T00:16:18;39.70;38.56;41.12;;
67320;Laerm;57665;51.436;5.978;2024-02-21T00:16:31;39.97;38.63;41.50;;
67320;Laerm;57665;51.436;5.978;2024-02-21T00:16:41;40.28;39.18;41.70;;
67320;Laerm;57665;51.436;5.978;2024-02-21T00:16:51;40.47;39.13;41.77;;
67320;Laerm;57665;51.436;5.978;2024-02-21T00:17:01;41.43;39.08;46.35;;
67320;Laerm;57665;51.436;5.978;2024-02-21T00:17:12;40.26;38.85;41.94;;
67320;Laerm;57665;51.436;5.978;2024-02-21T00:17:22;41.44;39.18;45.53;;
67320;Laerm;57665;51.436;5.978;2024-02-21T00:17:32;40.70;39.12;44.59;;
67320;Laerm;57665;51.436;5.978;2024-02-21T00:17:43;39.78;38.60;40.76;;
67320;Laerm;57665;51.436;5.978;2024-02-21T00:17:53;39.73;38.77;41.20;;
67320;Laerm;57665;51.436;5.978;2024-02-21T00:18:04;40.55;38.98;49.59;;
67320;Laerm;57665;51.436;5.978;2024-02-21T00:18:14;40.35;38.96;41.45;;
67320;Laerm;57665;51.436;5.978;2024-02-21T00:18:24;39.70;38.43;40.86;;
67320;Laerm;57665;51.436;5.978;2024-02-21T00:18:37;39.75;38.30;41.10;;
67320;Laerm;57665;51.436;5.978;2024-02-21T00:18:48;39.83;38.39;41.38;;
67320;Laerm;57665;51.436;5.978;2024-02-21T00:18:58;39.71;38.79;40.72;;
67320;Laerm;57665;51.436;5.978;2024-02-21T00:19:11;39.71;38.57;40.60;;
67320;Laerm;57665;51.436;5.978;2024-02-21T00:19:21;39.75;38.55;40.96;;
67320;Laerm;57665;51.436;5.978;2024-02-21T00:19:32;39.85;38.58;41.13;;
67320;Laerm;57665;51.436;5.978;2024-02-21T00:19:42;39.56;38.34;40.64;;
67320;Laerm;57665;51.436;5.978;2024-02-21T00:19:52;39.75;38.15;41.22;;
67320;Laerm;57665;51.436;5.978;2024-02-21T00:20:02;39.78;38.56;41.22;;
67320;Laerm;57665;51.436;5.978;2024-02-21T00:20:13;39.74;38.84;40.74;;
67320;Laerm;57665;51.436;5.978;2024-02-21T00:20:23;39.75;38.60;40.97;;
67320;Laerm;57665;51.436;5.978;2024-02-21T00:20:35;40.20;39.08;41.59;;
67320;Laerm;57665;51.436;5.978;2024-02-21T00:20:45;39.95;38.89;40.99;;
67320;Laerm;57665;51.436;5.978;2024-02-21T00:20:56;39.52;38.57;40.51;;
67320;Laerm;57665;51.436;5.978;2024-02-21T00:21:06;39.40;38.36;40.55;;
67320;Laerm;57665;51.436;5.978;2024-02-21T00:21:19;39.66;38.37;41.11;;
67320;Laerm;57665;51.436;5.978;2024-02-21T00:21:29;39.65;38.68;41.38;;
67320;Laerm;57665;51.436;5.978;2024-02-21T00:21:39;39.66;38.44;40.78;;
67320;Laerm;57665;51.436;5.978;2024-02-21T00:21:50;40.00;38.90;41.29;;
67320;Laerm;57665;51.436;5.978;2024-02-21T00:22:00;39.61;38.41;40.62;;
67320;Laerm;57665;51.436;5.978;2024-02-21T00:22:10;39.66;38.54;41.12;;
67320;Laerm;57665;51.436;5.978;2024-02-21T00:22:23;39.49;38.54;40.46;;
67320;Laerm;57665;51.436;5.978;2024-02-21T00:22:34;39.51;38.29;40.89;;
67320;Laerm;57665;51.436;5.978;2024-02-21T00:22:45;39.47;38.27;40.52;;
67320;Laerm;57665;51.436;5.978;2024-02-21T00:22:55;39.51;38.61;40.67;;
67320;Laerm;57665;51.436;5.978;2024-02-21T00:23:05;39.79;38.63;41.64;;
67320;Laerm;57665;51.436;5.978;2024-02-21T00:23:18;39.66;38.66;40.82;;
67320;Laerm;57665;51.436;5.978;2024-02-21T00:23:28;39.39;38.33;40.63;;
67320;Laerm;57665;51.436;5.978;2024-02-21T00:23:39;39.66;38.58;41.71;;
67320;Laerm;57665;51.436;5.978;2024-02-21T00:23:49;39.81;38.57;44.01;;
67320;Laerm;57665;51.436;5.978;2024-02-21T00:24:00;39.46;38.43;42.21;;
67320;Laerm;57665;51.436;5.978;2024-02-21T00:24:10;39.50;38.40;40.55;;
67320;Laerm;57665;51.436;5.978;2024-02-21T00:24:21;39.36;38.42;40.53;;
67320;Laerm;57665;51.436;5.978;2024-02-21T00:24:31;40.07;38.59;42.88;;
67320;Laerm;57665;51.436;5.978;2024-02-21T00:24:41;40.85;39.00;45.91;;
67320;Laerm;57665;51.436;5.978;2024-02-21T00:24:51;39.78;38.40;41.40;;
67320;Laerm;57665;51.436;5.978;2024-02-21T00:25:02;39.69;38.33;40.84;;
67320;Laerm;57665;51.436;5.978;2024-02-21T00:25:14;39.87;38.76;42.43;;
67320;Laerm;57665;51.436;5.978;2024-02-21T00:25:25;39.95;38.90;41.07;;
67320;Laerm;57665;51.436;5.978;2024-02-21T00:25:35;39.89;38.23;42.53;;
67320;Laerm;57665;51.436;5.978;2024-02-21T00:25:45;39.82;38.59;41.08;;
67320;Laerm;57665;51.436;5.978;2024-02-21T00:25:55;39.56;38.35;40.65;;
67320;Laerm;57665;51.436;5.978;2024-02-21T00:26:05;39.76;38.33;41.03;;
67320;Laerm;57665;51.436;5.978;2024-02-21T00:26:16;39.45;38.27;41.58;;
67320;Laerm;57665;51.436;5.978;2024-02-21T00:26:26;39.45;38.33;40.34;;
67320;Laerm;57665;51.436;5.978;2024-02-21T00:26:36;39.44;38.39;40.42;;
67320;Laerm;57665;51.436;5.978;2024-02-21T00:26:46;39.73;38.54;40.77;;
67320;Laerm;57665;51.436;5.978;2024-02-21T00:26:57;39.67;38.38;41.06;;
67320;Laerm;57665;51.436;5.978;2024-02-21T00:27:07;39.81;38.76;41.12;;
67320;Laerm;57665;51.436;5.978;2024-02-21T00:27:17;40.03;38.64;42.86;;
67320;Laerm;57665;51.436;5.978;2024-02-21T00:27:27;39.98;38.89;41.78;;
67320;Laerm;57665;51.436;5.978;2024-02-21T00:27:38;39.70;38.54;40.95;;
67320;Laerm;57665;51.436;5.978;2024-02-21T00:27:49;39.57;38.44;40.59;;
67320;Laerm;57665;51.436;5.978;2024-02-21T00:27:59;39.68;38.69;40.73;;
67320;Laerm;57665;51.436;5.978;2024-02-21T00:28:09;39.66;38.55;40.72;;
67320;Laerm;57665;51.436;5.978;2024-02-21T00:28:19;39.63;38.46;40.64;;
67320;Laerm;57665;51.436;5.978;2024-02-21T00:28:32;39.52;38.58;41.49;;
67320;Laerm;57665;51.436;5.978;2024-02-21T00:28:43;39.41;38.34;42.72;;
67320;Laerm;57665;51.436;5.978;2024-02-21T00:28:53;39.66;38.21;43.78;;
67320;Laerm;57665;51.436;5.978;2024-02-21T00:29:03;39.47;38.27;40.77;;
67320;Laerm;57665;51.436;5.978;2024-02-21T00:29:13;39.49;38.51;40.54;;
67320;Laerm;57665;51.436;5.978;2024-02-21T00:29:23;39.33;38.15;42.80;;
67320;Laerm;57665;51.436;5.978;2024-02-21T00:29:34;39.53;38.51;41.05;;
67320;Laerm;57665;51.436;5.978;2024-02-21T00:29:44;39.53;38.24;40.49;;
67320;Laerm;57665;51.436;5.978;2024-02-21T00:29:54;39.56;38.53;40.60;;
67320;Laerm;57665;51.436;5.978;2024-02-21T00:30:05;39.89;38.67;41.12;;
67320;Laerm;57665;51.436;5.978;2024-02-21T00:30:15;39.75;38.67;40.99;;
67320;Laerm;57665;51.436;5.978;2024-02-21T00:30:26;39.64;38.43;40.70;;
67320;Laerm;57665;51.436;5.978;2024-02-21T00:30:36;39.51;38.40;40.48;;
67320;Laerm;57665;51.436;5.978;2024-02-21T00:30:48;39.43;38.57;40.50;;
67320;Laerm;57665;51.436;5.978;2024-02-21T00:31:00;39.56;38.19;41.99;;
67320;Laerm;57665;51.436;5.978;2024-02-21T00:31:10;40.04;38.52;45.24;;
67320;Laerm;57665;51.436;5.978;2024-02-21T00:31:20;40.40;38.83;42.80;;
67320;Laerm;57665;51.436;5.978;2024-02-21T00:31:31;44.58;41.88;48.39;;
67320;Laerm;57665;51.436;5.978;2024-02-21T00:31:41;42.31;40.19;44.44;;
67320;Laerm;57665;51.436;5.978;2024-02-21T00:31:51;40.24;38.69;42.01;;
67320;Laerm;57665;51.436;5.978;2024-02-21T00:32:02;40.29;39.03;43.83;;
67320;Laerm;57665;51.436;5.978;2024-02-21T00:32:12;40.06;38.98;42.16;;
67320;Laerm;57665;51.436;5.978;2024-02-21T00:32:22;40.11;38.89;41.89;;
67320;Laerm;57665;51.436;5.978;2024-02-21T00:32:32;40.05;38.89;41.39;;
67320;Laerm;57665;51.436;5.978;2024-02-21T00:32:44;39.70;38.21;40.86;;
67320;Laerm;57665;51.436;5.978;2024-02-21T00:32:54;40.22;39.10;41.33;;
67320;Laerm;57665;51.436;5.978;2024-02-21T00:33:05;40.02;38.91;41.14;;
67320;Laerm;57665;51.436;5.978;2024-02-21T00:33:18;39.89;38.47;41.11;;
67320;Laerm;57665;51.436;5.978;2024-02-21T00:33:28;39.87;38.79;40.80;;
67320;Laerm;57665;51.436;5.978;2024-02-21T00:33:38;39.80;38.66;41.02;;
67320;Laerm;57665;51.436;5.978;2024-02-21T00:33:52;39.94;38.82;40.97;;
67320;Laerm;57665;51.436;5.978;2024-02-21T00:34:02;39.77;38.65;40.82;;
67320;Laerm;57665;51.436;5.978;2024-02-21T00:34:12;39.63;38.29;40.78;;
67320;Laerm;57665;51.436;5.978;2024-02-21T00:34:23;39.79;38.72;40.87;;
67320;Laerm;57665;51.436;5.978;2024-02-21T00:34:33;39.74;38.52;40.96;;
67320;Laerm;57665;51.436;5.978;2024-02-21T00:34:43;39.58;38.58;40.56;;
67320;Laerm;57665;51.436;5.978;2024-02-21T00:34:54;39.73;38.77;40.79;;
67320;Laerm;57665;51.436;5.978;2024-02-21T00:35:04;39.63;38.61;40.82;;
67320;Laerm;57665;51.436;5.978;2024-02-21T00:35:14;39.85;38.66;41.04;;
67320;Laerm;57665;51.436;5.978;2024-02-21T00:35:24;39.76;38.41;41.15;;
67320;Laerm;57665;51.436;5.978;2024-02-21T00:35:34;39.64;38.51;40.59;;
67320;Laerm;57665;51.436;5.978;2024-02-21T00:35:45;39.57;38.46;40.60;;
67320;Laerm;57665;51.436;5.978;2024-02-21T00:35:55;39.47;38.53;40.53;;
67320;Laerm;57665;51.436;5.978;2024-02-21T00:36:05;39.42;38.31;40.37;;
67320;Laerm;57665;51.436;5.978;2024-02-21T00:36:16;39.41;38.25;40.38;;
67320;Laerm;57665;51.436;5.978;2024-02-21T00:36:26;39.33;38.15;40.84;;
67320;Laerm;57665;51.436;5.978;2024-02-21T00:36:36;39.47;38.51;40.23;;
67320;Laerm;57665;51.436;5.978;2024-02-21T00:36:46;39.76;38.70;40.87;;
67320;Laerm;57665;51.436;5.978;2024-02-21T00:36:56;39.60;38.45;40.66;;
67320;Laerm;57665;51.436;5.978;2024-02-21T00:37:10;39.66;38.53;40.75;;
67320;Laerm;57665;51.436;5.978;2024-02-21T00:37:20;39.77;38.70;40.70;;
67320;Laerm;57665;51.436;5.978;2024-02-21T00:37:31;39.69;38.44;41.48;;
67320;Laerm;57665;51.436;5.978;2024-02-21T00:37:43;39.78;38.57;40.87;;
67320;Laerm;57665;51.436;5.978;2024-02-21T00:37:54;39.91;38.89;41.20;;
67320;Laerm;57665;51.436;5.978;2024-02-21T00:38:04;39.71;38.65;40.78;;
67320;Laerm;57665;51.436;5.978;2024-02-21T00:38:15;39.74;38.51;40.90;;
67320;Laerm;57665;51.436;5.978;2024-02-21T00:38:25;39.82;38.52;41.18;;
67320;Laerm;57665;51.436;5.978;2024-02-21T00:38:35;39.83;38.55;40.82;;
67320;Laerm;57665;51.436;5.978;2024-02-21T00:38:46;39.78;38.93;40.79;;
67320;Laerm;57665;51.436;5.978;2024-02-21T00:38:56;39.82;38.59;41.09;;
67320;Laerm;57665;51.436;5.978;2024-02-21T00:39:06;39.78;38.83;40.83;;
67320;Laerm;57665;51.436;5.978;2024-02-21T00:39:16;39.96;38.86;41.18;;
67320;Laerm;57665;51.436;5.978;2024-02-21T00:39:26;39.59;38.31;40.62;;
67320;Laerm;57665;51.436;5.978;2024-02-21T00:39:37;39.42;38.19;40.85;;
67320;Laerm;57665;51.436;5.978;2024-02-21T00:39:47;39.49;38.44;40.80;;
67320;Laerm;57665;51.436;5.978;2024-02-21T00:39:57;39.58;38.26;40.58;;
67320;Laerm;57665;51.436;5.978;2024-02-21T00:40:07;39.36;38.35;40.34;;
67320;Laerm;57665;51.436;5.978;2024-02-21T00:40:18;39.57;38.40;40.74;;
67320;Laerm;57665;51.436;5.978;2024-02-21T00:40:30;39.95;38.81;41.35;;
67320;Laerm;57665;51.436;5.978;2024-02-21T00:40:40;39.95;38.62;41.22;;
67320;Laerm;57665;51.436;5.978;2024-02-21T00:40:51;39.62;38.46;40.61;;
67320;Laerm;57665;51.436;5.978;2024-02-21T00:41:01;39.47;38.40;40.43;;
67320;Laerm;57665;51.436;5.978;2024-02-21T00:41:15;39.51;38.27;40.83;;
67320;Laerm;57665;51.436;5.978;2024-02-21T00:41:25;39.51;38.37;40.46;;
67320;Laerm;57665;51.436;5.978;2024-02-21T00:41:36;39.64;38.43;40.83;;
67320;Laerm;57665;51.436;5.978;2024-02-21T00:41:47;39.61;38.39;40.85;;
67320;Laerm;57665;51.436;5.978;2024-02-21T00:41:57;39.49;38.56;41.40;;
67320;Laerm;57665;51.436;5.978;2024-02-21T00:42:07;39.74;38.38;40.83;;
67320;Laerm;57665;51.436;5.978;2024-02-21T00:42:18;39.80;38.63;41.44;;
67320;Laerm;57665;51.436;5.978;2024-02-21T00:42:28;39.94;38.61;41.22;;
67320;Laerm;57665;51.436;5.978;2024-02-21T00:42:38;39.71;38.44;40.89;;
67320;Laerm;57665;51.436;5.978;2024-02-21T00:42:48;39.83;38.43;41.37;;
67320;Laerm;57665;51.436;5.978;2024-02-21T00:42:58;39.68;38.34;41.01;;
67320;Laerm;57665;51.436;5.978;2024-02-21T00:43:09;39.41;38.28;40.60;;
67320;Laerm;57665;51.436;5.978;2024-02-21T00:43:19;39.49;38.49;40.69;;
67320;Laerm;57665;51.436;5.978;2024-02-21T00:43:33;39.98;38.11;47.36;;
67320;Laerm;57665;51.436;5.978;2024-02-21T00:43:43;39.41;38.11;40.61;;
67320;Laerm;57665;51.436;5.978;2024-02-21T00:43:54;39.59;38.32;42.55;;
67320;Laerm;57665;51.436;5.978;2024-02-21T00:44:04;39.61;38.58;43.99;;
67320;Laerm;57665;51.436;5.978;2024-02-21T00:44:16;39.47;38.29;40.60;;
67320;Laerm;57665;51.436;5.978;2024-02-21T00:44:26;39.82;38.60;41.14;;
67320;Laerm;57665;51.436;5.978;2024-02-21T00:44:36;39.42;38.06;40.84;;
67320;Laerm;57665;51.436;5.978;2024-02-21T00:44:46;39.59;38.20;41.90;;
67320;Laerm;57665;51.436;5.978;2024-02-21T00:44:57;39.28;38.27;40.37;;
67320;Laerm;57665;51.436;5.978;2024-02-21T00:45:08;39.53;38.00;40.57;;
67320;Laerm;57665;51.436;5.978;2024-02-21T00:45:18;39.98;38.47;40.90;;
67320;Laerm;57665;51.436;5.978;2024-02-21T00:45:28;39.72;38.59;40.85;;
67320;Laerm;57665;51.436;5.978;2024-02-21T00:45:39;40.34;39.09;41.63;;
67320;Laerm;57665;51.436;5.978;2024-02-21T00:45:50;39.55;38.46;41.29;;
67320;Laerm;57665;51.436;5.978;2024-02-21T00:46:00;39.59;38.67;40.54;;
67320;Laerm;57665;51.436;5.978;2024-02-21T00:46:10;39.84;38.79;40.89;;
67320;Laerm;57665;51.436;5.978;2024-02-21T00:46:20;39.86;38.78;45.71;;
67320;Laerm;57665;51.436;5.978;2024-02-21T00:46:30;39.75;38.76;41.27;;
67320;Laerm;57665;51.436;5.978;2024-02-21T00:46:41;39.72;38.58;41.32;;
67320;Laerm;57665;51.436;5.978;2024-02-21T00:46:51;39.85;38.84;40.85;;
67320;Laerm;57665;51.436;5.978;2024-02-21T00:47:02;40.14;38.98;41.55;;
67320;Laerm;57665;51.436;5.978;2024-02-21T00:47:12;39.98;38.74;41.13;;
67320;Laerm;57665;51.436;5.978;2024-02-21T00:47:23;40.47;39.01;41.86;;
67320;Laerm;57665;51.436;5.978;2024-02-21T00:47:33;40.10;39.02;41.23;;
67320;Laerm;57665;51.436;5.978;2024-02-21T00:47:43;41.58;39.70;45.26;;
67320;Laerm;57665;51.436;5.978;2024-02-21T00:47:53;66.03;44.18;73.51;;
67320;Laerm;57665;51.436;5.978;2024-02-21T00:48:04;67.79;63.77;74.16;;
67320;Laerm;57665;51.436;5.978;2024-02-21T00:48:14;61.09;40.31;70.27;;
67320;Laerm;57665;51.436;5.978;2024-02-21T00:48:24;39.93;38.67;41.44;;
67320;Laerm;57665;51.436;5.978;2024-02-21T00:48:34;40.05;39.00;41.03;;
67320;Laerm;57665;51.436;5.978;2024-02-21T00:48:47;39.96;38.52;47.57;;
67320;Laerm;57665;51.436;5.978;2024-02-21T00:48:58;40.03;38.96;41.26;;
67320;Laerm;57665;51.436;5.978;2024-02-21T00:49:08;40.09;38.63;41.49;;
67320;Laerm;57665;51.436;5.978;2024-02-21T00:49:18;39.55;38.18;41.04;;
67320;Laerm;57665;51.436;5.978;2024-02-21T00:49:29;40.10;38.72;42.22;;
67320;Laerm;57665;51.436;5.978;2024-02-21T00:49:39;40.18;38.21;41.45;;
67320;Laerm;57665;51.436;5.978;2024-02-21T00:49:49;39.86;38.53;41.24;;
67320;Laerm;57665;51.436;5.978;2024-02-21T00:49:59;40.20;38.64;41.72;;
67320;Laerm;57665;51.436;5.978;2024-02-21T00:50:09;40.26;39.06;41.87;;
67320;Laerm;57665;51.436;5.978;2024-02-21T00:50:20;40.20;39.18;41.07;;
67320;Laerm;57665;51.436;5.978;2024-02-21T00:50:30;39.91;38.75;40.99;;
67320;Laerm;57665;51.436;5.978;2024-02-21T00:50:40;39.80;38.66;41.86;;
67320;Laerm;57665;51.436;5.978;2024-02-21T00:50:51;39.65;38.65;40.91;;
67320;Laerm;57665;51.436;5.978;2024-02-21T00:51:01;39.60;38.27;40.67;;
67320;Laerm;57665;51.436;5.978;2024-02-21T00:51:12;39.81;38.61;42.31;;
67320;Laerm;57665;51.436;5.978;2024-02-21T00:51:22;39.64;38.43;41.02;;
67320;Laerm;57665;51.436;5.978;2024-02-21T00:51:32;39.93;38.74;41.49;;
67320;Laerm;57665;51.436;5.978;2024-02-21T00:51:43;39.89;38.77;41.22;;
67320;Laerm;57665;51.436;5.978;2024-02-21T00:51:53;39.38;38.20;40.47;;
67320;Laerm;57665;51.436;5.978;2024-02-21T00:52:03;39.42;38.23;40.36;;
67320;Laerm;57665;51.436;5.978;2024-02-21T00:52:14;39.86;38.36;42.35;;
67320;Laerm;57665;51.436;5.978;2024-02-21T00:52:24;39.95;38.81;41.13;;
67320;Laerm;57665;51.436;5.978;2024-02-21T00:52:34;39.90;38.49;42.26;;
67320;Laerm;57665;51.436;5.978;2024-02-21T00:52:44;40.09;38.68;41.64;;
67320;Laerm;57665;51.436;5.978;2024-02-21T00:52:57;40.20;38.63;41.64;;
67320;Laerm;57665;51.436;5.978;2024-02-21T00:53:07;39.78;38.47;41.03;;
67320;Laerm;57665;51.436;5.978;2024-02-21T00:53:18;39.73;38.72;41.46;;
67320;Laerm;57665;51.436;5.978;2024-02-21T00:53:28;39.50;38.49;41.34;;
67320;Laerm;57665;51.436;5.978;2024-02-21T00:53:38;39.72;38.31;41.20;;
67320;Laerm;57665;51.436;5.978;2024-02-21T00:53:48;39.67;38.40;40.53;;
67320;Laerm;57665;51.436;5.978;2024-02-21T00:53:59;39.45;38.42;40.39;;
67320;Laerm;57665;51.436;5.978;2024-02-21T00:54:11;39.76;38.78;40.62;;
67320;Laerm;57665;51.436;5.978;2024-02-21T00:54:22;39.71;38.30;40.77;;
67320;Laerm;57665;51.436;5.978;2024-02-21T00:54:32;39.55;38.51;40.53;;
67320;Laerm;57665;51.436;5.978;2024-02-21T00:54:43;39.35;38.18;40.32;;
67320;Laerm;57665;51.436;5.978;2024-02-21T00:54:53;39.56;38.55;40.38;;
67320;Laerm;57665;51.436;5.978;2024-02-21T00:55:04;39.61;38.63;42.07;;
67320;Laerm;57665;51.436;5.978;2024-02-21T00:55:14;39.37;38.26;40.31;;
67320;Laerm;57665;51.436;5.978;2024-02-21T00:55:24;39.60;38.45;42.54;;
67320;Laerm;57665;51.436;5.978;2024-02-21T00:55:34;39.56;38.21;40.77;;
67320;Laerm;57665;51.436;5.978;2024-02-21T00:55:45;39.84;38.78;40.83;;
67320;Laerm;57665;51.436;5.978;2024-02-21T00:55:55;39.81;38.63;43.81;;
67320;Laerm;57665;51.436;5.978;2024-02-21T00:56:06;39.60;38.62;41.18;;
67320;Laerm;57665;51.436;5.978;2024-02-21T00:56:17;39.90;38.86;41.10;;
67320;Laerm;57665;51.436;5.978;2024-02-21T00:56:27;39.78;38.33;40.94;;
67320;Laerm;57665;51.436;5.978;2024-02-21T00:56:37;39.84;38.88;41.06;;
67320;Laerm;57665;51.436;5.978;2024-02-21T00:56:47;39.84;38.50;43.17;;
67320;Laerm;57665;51.436;5.978;2024-02-21T00:56:58;40.15;38.79;47.24;;
67320;Laerm;57665;51.436;5.978;2024-02-21T00:57:08;39.91;38.68;41.50;;
67320;Laerm;57665;51.436;5.978;2024-02-21T00:57:18;40.27;38.90;41.63;;
67320;Laerm;57665;51.436;5.978;2024-02-21T00:57:28;39.74;38.58;40.83;;
67320;Laerm;57665;51.436;5.978;2024-02-21T00:57:38;39.67;38.63;40.51;;
67320;Laerm;57665;51.436;5.978;2024-02-21T00:57:49;39.70;38.64;40.60;;
67320;Laerm;57665;51.436;5.978;2024-02-21T00:57:59;40.00;38.73;41.27;;
67320;Laerm;57665;51.436;5.978;2024-02-21T00:58:09;39.76;38.55;40.89;;
67320;Laerm;57665;51.436;5.978;2024-02-21T00:58:19;39.68;38.62;40.96;;
67320;Laerm;57665;51.436;5.978;2024-02-21T00:58:30;39.54;38.41;40.93;;
67320;Laerm;57665;51.436;5.978;2024-02-21T00:58:40;39.50;38.29;40.77;;
67320;Laerm;57665;51.436;5.978;2024-02-21T00:58:50;40.00;38.70;41.25;;
67320;Laerm;57665;51.436;5.978;2024-02-21T00:59:01;39.85;38.78;40.76;;